עמוד ראשי
METAR-TAF:

METAR-TAF

שדות תעופה :

עמאן, ירדן

קו רוחב: 31-59N, קו אורך: 035-59E, גובה: 767מטר

תצפית מזג אוויר נוכחית

הדו"ח נערך לפני 32דקות, בשעה 19:00 UTC
רוח 5קשר מכיוון מערב/צפון-מערב
טמפרטורת 32 צלסיוס
לחות 21%
לחץ 1015 hPa
ראות: 8000מטר

METAR: OJAM 131900Z 29005KT 8000 NSC 32/07 Q1015 NOSIG

זמן: 22:32 (19:32 UTC)

תחזית

הדו"ח נערך לפני 2 שעות ו 32דקות, בשעה 17:00 UTC
תחזית בתוקף מ 13 ב 18 UTC עד 14 ב 24 UTC
רוח 10קשר מכיוון צפון-מערב
ראות: 6000מטר
זמנית מ -
14 ב 02 UTC עד 14 ב 11 UTC
רוח 6קשר מכיוון מזרח
הסתברות 30% :
זמנית מ -
14 ב 12 UTC עד 14 ב 18 UTC
רוח 16קשר מכיוון צפון-מערב
ראות: 4000מטר
אבק נושב,

TAF: OJAM 131700Z 1318/1424 32010KT 6000 NSC TEMPO 1402/1411 08006KT PROB30 TEMPO 1412/1418 31016KT 4000 BLDU

תצפיות ותחזיות מזג אוויר לגבי יותר מ- 4,000 שדות תעופה ברחבי העולם. דוחות METAR ו- TAF.

התחנות הזמינות מסומנות בנקודות צהובות ואדומות על גבי המפה.

העבר את העכבר לנקודה הצבעונית על מנת לראות את שם התחנה.

לאחר מכן, לחץ כדי לראות את תוכן ואת תחזיות מזג האוויר.

כדי לשנות את המפה: לחץ על הכפתורים הירוקים עם הפלוס השחור כדי להתקרב; על הכפתור הירוק עם המקף כדי להתרחק; או בחיצים הירוקים למפות סמוכות.


METAR-TAF: